Time;durP1;ratioP1;P1;durP2;ratioP2;P2;SDS_P1;SDS_P2;PMS_P1;PMS_P2;Temp;Humidity;BMP_temperature;BMP_pressure;BME280_temperature;BME280_humidity;BME280_pressure;Samples;Min_cycle;Max_cycle;Signal;HPM_P1;HPM_P2
2023/12/26 00:01:36;;;;;;;3.47;3.17;;;;;;;;;;4821356;29;20058;-73
2023/12/26 00:04:03;;;;;;;3.22;2.88;;;;;;;;;;4815257;29;20334;-76
2023/12/26 00:06:29;;;;;;;3.45;2.95;;;;;;;;;;4819664;29;20054;-77
2023/12/26 00:08:55;;;;;;;3.00;2.70;;;;;;;;;;4807355;29;20911;-74
2023/12/26 00:11:22;;;;;;;3.15;2.70;;;;;;;;;;4811365;29;20126;-75
2023/12/26 00:13:49;;;;;;;3.53;3.22;;;;;;;;;;4814741;29;20054;-75
2023/12/26 00:16:16;;;;;;;4.28;2.70;;;;;;;;;;4806963;29;20064;-77
2023/12/26 00:18:42;;;;;;;2.10;1.88;;;;;;;;;;4794413;29;20797;-75
2023/12/26 00:21:09;;;;;;;2.10;1.90;;;;;;;;;;4828159;29;20090;-76
2023/12/26 00:23:35;;;;;;;2.80;2.10;;;;;;;;;;4796388;29;20802;-76
2023/12/26 00:26:02;;;;;;;2.13;1.90;;;;;;;;;;4816910;29;20064;-77
2023/12/26 00:28:29;;;;;;;2.72;1.90;;;;;;;;;;4823873;29;20253;-78
2023/12/26 00:30:55;;;;;;;24.48;3.65;;;;;;;;;;4819370;29;20065;-77
2023/12/26 00:33:22;;;;;;;3.50;1.60;;;;;;;;;;4824552;29;20105;-77
2023/12/26 00:35:48;;;;;;;1.80;1.70;;;;;;;;;;4829436;29;20553;-77
2023/12/26 00:38:15;;;;;;;1.70;1.60;;;;;;;;;;4816197;29;20802;-77
2023/12/26 00:40:41;;;;;;;2.15;1.60;;;;;;;;;;4804370;29;20082;-78
2023/12/26 00:43:08;;;;;;;2.55;1.70;;;;;;;;;;4809304;29;20081;-80
2023/12/26 00:45:34;;;;;;;5.45;1.60;;;;;;;;;;4807081;29;20122;-78
2023/12/26 00:48:01;;;;;;;1.65;1.30;;;;;;;;;;4799022;29;20050;-78
2023/12/26 00:50:27;;;;;;;2.13;1.30;;;;;;;;;;4821570;29;20130;-78
2023/12/26 00:52:54;;;;;;;2.30;0.80;;;;;;;;;;4812988;29;20058;-79
2023/12/26 00:55:22;;;;;;;1.17;0.70;;;;;;;;;;4807951;29;20658;-78
2023/12/26 00:57:48;;;;;;;2.37;0.80;;;;;;;;;;4813763;29;20047;-76
2023/12/26 01:00:15;;;;;;;1.88;0.70;;;;;;;;;;4794509;29;20214;-76
2023/12/26 01:02:41;;;;;;;1.52;0.95;;;;;;;;;;4822867;29;20060;-77
2023/12/26 01:05:08;;;;;;;2.28;1.20;;;;;;;;;;4829547;29;20058;-79
2023/12/26 01:07:34;;;;;;;2.10;1.20;;;;;;;;;;4806327;29;20054;-78
2023/12/26 01:10:04;;;;;;;4.80;1.30;;;;;;;;;;4815005;29;20058;-78
2023/12/26 01:12:31;;;;;;;1.48;1.38;;;;;;;;;;4811783;29;20050;-79
2023/12/26 01:14:57;;;;;;;3.45;1.95;;;;;;;;;;4814886;29;20057;-79
2023/12/26 01:17:23;;;;;;;3.60;2.03;;;;;;;;;;4819580;29;20475;-78
2023/12/26 01:19:50;;;;;;;3.08;2.17;;;;;;;;;;4813826;29;20058;-77
2023/12/26 01:22:16;;;;;;;3.28;1.73;;;;;;;;;;4815467;29;20730;-78
2023/12/26 01:24:43;;;;;;;3.10;1.60;;;;;;;;;;4817632;29;20057;-78
2023/12/26 01:27:09;;;;;;;3.00;1.90;;;;;;;;;;4816230;29;20511;-77
2023/12/26 01:29:36;;;;;;;6.50;1.98;;;;;;;;;;4823925;29;20124;-77
2023/12/26 01:32:02;;;;;;;2.28;1.52;;;;;;;;;;4800036;29;20187;-77
2023/12/26 01:34:29;;;;;;;3.65;1.73;;;;;;;;;;4818372;29;20069;-76
2023/12/26 01:36:56;;;;;;;3.90;1.55;;;;;;;;;;4808988;29;20054;-77
2023/12/26 01:39:22;;;;;;;1.77;1.65;;;;;;;;;;4810543;29;20049;-73
2023/12/26 01:41:48;;;;;;;2.88;1.38;;;;;;;;;;4793397;29;20135;-77
2023/12/26 01:44:15;;;;;;;4.25;1.67;;;;;;;;;;4797658;29;20113;-76
2023/12/26 01:46:41;;;;;;;2.08;1.30;;;;;;;;;;4820206;29;20055;-75
2023/12/26 01:49:08;;;;;;;3.42;1.40;;;;;;;;;;4804870;29;20092;-76
2023/12/26 01:51:37;;;;;;;1.98;1.35;;;;;;;;;;4815279;29;20058;-75
2023/12/26 01:54:04;;;;;;;2.85;1.30;;;;;;;;;;4814432;29;20058;-75
2023/12/26 01:56:30;;;;;;;2.28;1.20;;;;;;;;;;4817275;29;20647;-77
2023/12/26 01:58:57;;;;;;;3.10;1.40;;;;;;;;;;4827763;29;20142;-77
2023/12/26 02:01:23;;;;;;;2.47;1.42;;;;;;;;;;4810953;29;20050;-76
2023/12/26 02:03:52;;;;;;;3.72;1.50;;;;;;;;;;4813789;29;20065;-75
2023/12/26 02:06:18;;;;;;;2.17;1.60;;;;;;;;;;4808983;29;20081;-76
2023/12/26 02:08:45;;;;;;;1.90;1.45;;;;;;;;;;4816906;29;20058;-75
2023/12/26 02:11:11;;;;;;;3.92;1.95;;;;;;;;;;4814818;29;20716;-75
2023/12/26 02:13:38;;;;;;;3.22;1.52;;;;;;;;;;4819769;29;20839;-75
2023/12/26 02:16:07;;;;;;;2.80;1.60;;;;;;;;;;4812422;29;20755;-76
2023/12/26 02:18:34;;;;;;;2.00;1.60;;;;;;;;;;4808078;29;20102;-74
2023/12/26 02:21:00;;;;;;;8.43;1.75;;;;;;;;;;4825043;29;20046;-74
2023/12/26 02:23:28;;;;;;;2.20;0.90;;;;;;;;;;4799360;29;20068;-74
2023/12/26 02:25:55;;;;;;;2.63;1.15;;;;;;;;;;4813680;29;20050;-76
2023/12/26 02:28:22;;;;;;;1.45;1.08;;;;;;;;;;4816602;29;20050;-72
2023/12/26 02:30:49;;;;;;;5.35;1.42;;;;;;;;;;4815609;29;20082;-73
2023/12/26 02:33:16;;;;;;;1.02;0.70;;;;;;;;;;4809356;29;20055;-74
2023/12/26 02:35:43;;;;;;;1.77;0.68;;;;;;;;;;4807882;29;20053;-76
2023/12/26 02:38:10;;;;;;;1.50;0.90;;;;;;;;;;4813569;29;20496;-75
2023/12/26 02:40:36;;;;;;;2.40;1.40;;;;;;;;;;4797394;29;20687;-75
2023/12/26 02:43:02;;;;;;;3.08;1.63;;;;;;;;;;4807278;29;20098;-75
2023/12/26 02:45:29;;;;;;;3.08;1.60;;;;;;;;;;4796412;29;20492;-76
2023/12/26 02:47:55;;;;;;;2.53;1.60;;;;;;;;;;4803434;29;20528;-74
2023/12/26 02:50:22;;;;;;;1.60;1.30;;;;;;;;;;4813691;29;20065;-75
2023/12/26 02:52:48;;;;;;;5.47;1.45;;;;;;;;;;4800351;29;20153;-75
2023/12/26 02:55:15;;;;;;;2.92;1.10;;;;;;;;;;4822169;29;20486;-75
2023/12/26 02:57:42;;;;;;;3.92;1.70;;;;;;;;;;4813616;29;20145;-75
2023/12/26 03:00:08;;;;;;;3.03;1.42;;;;;;;;;;4788071;29;20162;-75
2023/12/26 03:02:35;;;;;;;2.35;1.05;;;;;;;;;;4809268;29;20046;-76
2023/12/26 03:05:01;;;;;;;4.40;1.10;;;;;;;;;;4809174;29;20104;-76
2023/12/26 03:07:28;;;;;;;4.78;1.25;;;;;;;;;;4799461;29;20053;-76
2023/12/26 03:09:54;;;;;;;7.75;1.23;;;;;;;;;;4816892;29;20050;-76
2023/12/26 03:12:21;;;;;;;4.55;1.33;;;;;;;;;;4812345;29;20089;-77
2023/12/26 03:14:47;;;;;;;5.20;1.10;;;;;;;;;;4801091;29;20054;-74
2023/12/26 03:17:13;;;;;;;4.38;0.95;;;;;;;;;;4817516;29;20054;-76
2023/12/26 03:19:40;;;;;;;8.90;1.30;;;;;;;;;;4827091;29;20438;-76
2023/12/26 03:22:07;;;;;;;6.20;1.20;;;;;;;;;;4808258;29;20058;-75
2023/12/26 03:24:33;;;;;;;3.92;1.65;;;;;;;;;;4795096;29;20054;-75
2023/12/26 03:27:01;;;;;;;5.50;1.13;;;;;;;;;;4802631;29;20489;-75
2023/12/26 03:29:27;;;;;;;5.93;1.30;;;;;;;;;;4810432;29;20054;-75
2023/12/26 03:31:53;;;;;;;5.05;1.40;;;;;;;;;;4816945;29;20137;-76
2023/12/26 03:34:20;;;;;;;5.43;1.00;;;;;;;;;;4811333;29;20082;-76
2023/12/26 03:36:48;;;;;;;8.40;1.50;;;;;;;;;;4815051;29;20054;-75
2023/12/26 03:39:15;;;;;;;;;;;;;;;;;;4821990;29;20054;-76
2023/12/26 03:41:44;;;;;;;7.95;1.25;;;;;;;;;;4814592;29;20366;-75
2023/12/26 03:44:10;;;;;;;5.55;1.35;;;;;;;;;;4827912;29;20053;-79
2023/12/26 03:46:37;;;;;;;6.10;1.58;;;;;;;;;;4812426;29;20740;-75
2023/12/26 03:49:03;;;;;;;5.05;1.50;;;;;;;;;;4817258;29;20676;-75
2023/12/26 03:51:30;;;;;;;8.65;1.40;;;;;;;;;;4801187;29;20061;-75
2023/12/26 03:53:56;;;;;;;6.78;1.15;;;;;;;;;;4810398;29;20057;-75
2023/12/26 03:56:23;;;;;;;11.95;1.85;;;;;;;;;;4805482;29;20090;-75
2023/12/26 03:58:49;;;;;;;5.90;1.05;;;;;;;;;;4795993;29;20184;-76
2023/12/26 04:01:15;;;;;;;8.45;1.70;;;;;;;;;;4822243;29;20157;-76
2023/12/26 04:03:42;;;;;;;7.07;1.33;;;;;;;;;;4815326;29;20070;-75
2023/12/26 04:06:08;;;;;;;7.90;1.40;;;;;;;;;;4811393;29;20704;-72
2023/12/26 04:08:35;;;;;;;7.82;1.50;;;;;;;;;;4798132;29;20050;-75
2023/12/26 04:11:01;;;;;;;10.82;1.67;;;;;;;;;;4810344;29;20161;-75
2023/12/26 04:13:28;;;;;;;6.28;1.25;;;;;;;;;;4798297;29;20399;-74
2023/12/26 04:15:54;;;;;;;5.90;1.30;;;;;;;;;;4814026;29;20570;-75
2023/12/26 04:18:21;;;;;;;5.38;1.40;;;;;;;;;;4801398;29;20066;-74
2023/12/26 04:20:47;;;;;;;7.43;1.00;;;;;;;;;;4823610;29;20056;-74
2023/12/26 04:23:13;;;;;;;6.13;1.08;;;;;;;;;;4811163;29;20077;-75
2023/12/26 04:25:40;;;;;;;8.20;1.77;;;;;;;;;;4800551;29;20050;-75
2023/12/26 04:28:06;;;;;;;6.28;1.10;;;;;;;;;;4819118;29;20812;-75
2023/12/26 04:30:33;;;;;;;8.48;1.65;;;;;;;;;;4803166;29;20141;-75
2023/12/26 04:33:00;;;;;;;7.57;1.30;;;;;;;;;;4799116;29;20054;-74
2023/12/26 04:35:27;;;;;;;6.60;1.15;;;;;;;;;;4814931;29;20060;-74
2023/12/26 04:37:54;;;;;;;8.35;1.23;;;;;;;;;;4813625;29;20809;-74
2023/12/26 04:40:20;;;;;;;7.47;0.90;;;;;;;;;;4825854;29;20778;-74
2023/12/26 04:42:46;;;;;;;7.25;1.50;;;;;;;;;;4825030;29;20060;-75
2023/12/26 04:45:13;;;;;;;7.45;1.00;;;;;;;;;;4800086;29;20097;-74
2023/12/26 04:47:40;;;;;;;6.35;1.02;;;;;;;;;;4810200;29;20057;-75
2023/12/26 04:50:06;;;;;;;4.55;0.90;;;;;;;;;;4795811;29;20938;-75
2023/12/26 04:52:33;;;;;;;5.40;1.30;;;;;;;;;;4807567;29;20057;-74
2023/12/26 04:54:59;;;;;;;11.68;1.13;;;;;;;;;;4820366;29;20050;-77
2023/12/26 04:57:26;;;;;;;7.40;1.02;;;;;;;;;;4825800;29;20115;-77
2023/12/26 04:59:52;;;;;;;3.90;1.05;;;;;;;;;;4804999;29;20064;-78
2023/12/26 05:02:19;;;;;;;4.15;1.00;;;;;;;;;;4806371;29;20089;-77
2023/12/26 05:04:45;;;;;;;5.40;1.23;;;;;;;;;;4816654;29;20054;-76
2023/12/26 05:07:12;;;;;;;5.15;1.08;;;;;;;;;;4812328;29;20081;-77
2023/12/26 05:09:38;;;;;;;6.93;1.33;;;;;;;;;;4809221;29;20258;-77
2023/12/26 05:12:06;;;;;;;12.50;1.35;;;;;;;;;;4814283;29;20177;-78
2023/12/26 05:14:32;;;;;;;3.95;0.95;;;;;;;;;;4815503;29;20061;-77
2023/12/26 05:16:59;;;;;;;9.32;1.20;;;;;;;;;;4800941;29;20652;-76
2023/12/26 05:19:25;;;;;;;5.28;1.00;;;;;;;;;;4792780;29;20062;-77
2023/12/26 05:21:52;;;;;;;7.47;1.08;;;;;;;;;;4805478;29;20068;-77
2023/12/26 05:24:18;;;;;;;8.80;1.33;;;;;;;;;;4817476;29;20528;-77
2023/12/26 05:26:45;;;;;;;7.97;1.52;;;;;;;;;;4799158;29;20054;-77
2023/12/26 05:29:11;;;;;;;4.82;0.98;;;;;;;;;;4793717;29;20145;-77
2023/12/26 05:31:38;;;;;;;9.00;1.40;;;;;;;;;;4812569;29;20050;-77
2023/12/26 05:34:05;;;;;;;8.50;1.30;;;;;;;;;;4806573;29;21512;-77
2023/12/26 05:36:32;;;;;;;6.60;1.40;;;;;;;;;;4815655;29;20051;-76
2023/12/26 05:38:58;;;;;;;6.55;1.45;;;;;;;;;;4815370;29;20050;-76
2023/12/26 05:41:25;;;;;;;9.90;1.80;;;;;;;;;;4813434;29;20150;-77
2023/12/26 05:43:51;;;;;;;7.20;1.10;;;;;;;;;;4817041;29;20107;-76
2023/12/26 05:46:20;;;;;;;9.27;1.30;;;;;;;;;;4806815;29;20058;-77
2023/12/26 05:48:46;;;;;;;9.27;1.30;;;;;;;;;;4811954;29;20049;-77
2023/12/26 05:51:13;;;;;;;7.95;1.50;;;;;;;;;;4808765;29;20460;-77
2023/12/26 05:53:39;;;;;;;7.13;1.45;;;;;;;;;;4813540;29;20400;-77
2023/12/26 05:56:05;;;;;;;9.73;1.25;;;;;;;;;;4815553;29;20058;-77
2023/12/26 05:58:32;;;;;;;7.93;1.40;;;;;;;;;;4817721;29;20058;-76
2023/12/26 06:00:58;;;;;;;7.50;1.08;;;;;;;;;;4810787;29;20062;-76
2023/12/26 06:03:25;;;;;;;10.10;1.23;;;;;;;;;;4805917;29;20051;-76
2023/12/26 06:05:51;;;;;;;7.35;1.20;;;;;;;;;;4814424;29;20655;-74
2023/12/26 06:08:18;;;;;;;12.45;1.60;;;;;;;;;;4813635;29;20137;-75
2023/12/26 06:10:44;;;;;;;12.57;1.77;;;;;;;;;;4807182;29;20054;-75
2023/12/26 06:13:11;;;;;;;7.75;1.60;;;;;;;;;;4815945;29;20687;-75
2023/12/26 06:15:37;;;;;;;8.25;1.27;;;;;;;;;;4804859;29;20054;-76
2023/12/26 06:18:04;;;;;;;10.88;1.60;;;;;;;;;;4810926;29;20228;-75
2023/12/26 06:20:30;;;;;;;12.23;1.75;;;;;;;;;;4811109;29;20138;-78
2023/12/26 06:22:57;;;;;;;8.60;1.55;;;;;;;;;;4818164;29;20073;-75
2023/12/26 06:25:23;;;;;;;6.93;1.25;;;;;;;;;;4798913;29;20494;-74
2023/12/26 06:27:50;;;;;;;6.75;1.13;;;;;;;;;;4813830;29;20505;-75
2023/12/26 06:30:17;;;;;;;7.55;1.30;;;;;;;;;;4813253;29;20144;-74
2023/12/26 06:32:43;;;;;;;10.00;1.30;;;;;;;;;;4815426;29;20137;-75
2023/12/26 06:35:10;;;;;;;10.15;2.00;;;;;;;;;;4810524;29;20078;-75
2023/12/26 06:37:36;;;;;;;10.52;1.55;;;;;;;;;;4823627;29;20054;-73
2023/12/26 06:40:04;;;;;;;12.95;2.03;;;;;;;;;;4812251;29;20214;-73
2023/12/26 06:42:30;;;;;;;9.90;1.60;;;;;;;;;;4807382;29;20568;-73
2023/12/26 06:44:56;;;;;;;8.15;1.08;;;;;;;;;;4814758;29;20144;-76
2023/12/26 06:47:23;;;;;;;11.40;1.52;;;;;;;;;;4815003;29;20133;-75
2023/12/26 06:49:53;;;;;;;9.95;1.67;;;;;;;;;;4812933;29;20129;-75
2023/12/26 06:52:19;;;;;;;8.80;1.13;;;;;;;;;;4809392;29;20058;-76
2023/12/26 06:54:46;;;;;;;11.25;1.50;;;;;;;;;;4811534;29;20462;-75
2023/12/26 06:57:21;;;;;;;8.43;1.17;;;;;;;;;;4806050;29;20058;-75
2023/12/26 06:59:48;;;;;;;8.73;1.20;;;;;;;;;;4796058;29;20050;-75
2023/12/26 07:02:15;;;;;;;6.05;1.27;;;;;;;;;;4815361;29;20042;-76
2023/12/26 07:04:44;;;;;;;7.80;1.30;;;;;;;;;;4822595;29;20047;-75
2023/12/26 07:07:11;;;;;;;13.88;1.90;;;;;;;;;;4811468;29;20058;-73
2023/12/26 07:09:38;;;;;;;5.47;1.08;;;;;;;;;;4804552;29;20078;-73
2023/12/26 07:12:04;;;;;;;6.40;1.08;;;;;;;;;;4794743;29;20110;-73
2023/12/26 07:14:31;;;;;;;8.98;1.75;;;;;;;;;;4810464;29;20046;-73
2023/12/26 07:16:58;;;;;;;7.57;1.60;;;;;;;;;;4826306;29;20393;-76
2023/12/26 07:19:24;;;;;;;11.93;1.17;;;;;;;;;;4817518;29;20054;-77
2023/12/26 07:21:51;;;;;;;9.63;1.38;;;;;;;;;;4821541;29;20774;-74
2023/12/26 07:24:17;;;;;;;9.82;1.20;;;;;;;;;;4812424;29;20081;-74
2023/12/26 07:26:44;;;;;;;8.45;1.73;;;;;;;;;;4818152;29;20542;-72
2023/12/26 07:29:10;;;;;;;7.72;1.10;;;;;;;;;;4810492;29;20055;-76
2023/12/26 07:31:37;;;;;;;11.93;2.08;;;;;;;;;;4805793;29;20114;-73
2023/12/26 07:34:08;;;;;;;8.05;1.40;;;;;;;;;;4813327;29;20069;-73
2023/12/26 07:36:34;;;;;;;9.55;1.20;;;;;;;;;;4812611;29;20050;-76
2023/12/26 07:39:01;;;;;;;10.77;1.63;;;;;;;;;;4796977;29;20058;-76
2023/12/26 07:41:27;;;;;;;8.10;1.23;;;;;;;;;;4824636;29;20146;-73
2023/12/26 07:43:54;;;;;;;6.07;0.90;;;;;;;;;;4813106;29;20633;-73
2023/12/26 07:46:21;;;;;;;7.13;1.30;;;;;;;;;;4814861;29;20082;-74
2023/12/26 07:48:48;;;;;;;9.65;1.73;;;;;;;;;;4815425;29;20054;-73
2023/12/26 07:51:14;;;;;;;8.27;1.48;;;;;;;;;;4804461;29;20057;-74
2023/12/26 07:53:41;;;;;;;6.22;1.05;;;;;;;;;;4816004;29;20060;-76
2023/12/26 07:56:07;;;;;;;11.98;1.45;;;;;;;;;;4809030;29;20538;-73
2023/12/26 07:58:34;;;;;;;7.38;1.50;;;;;;;;;;4813154;29;20153;-73
2023/12/26 08:01:02;;;;;;;9.75;1.48;;;;;;;;;;4812732;29;20819;-73
2023/12/26 08:03:28;;;;;;;7.82;1.38;;;;;;;;;;4819741;29;20058;-73
2023/12/26 08:05:55;;;;;;;13.00;2.05;;;;;;;;;;4811700;29;20055;-74
2023/12/26 08:08:22;;;;;;;7.43;1.55;;;;;;;;;;4809240;29;20057;-74
2023/12/26 08:10:49;;;;;;;9.68;1.40;;;;;;;;;;4810424;29;20136;-73
2023/12/26 08:13:15;;;;;;;9.70;1.48;;;;;;;;;;4814687;29;20054;-73
2023/12/26 08:15:42;;;;;;;6.80;1.45;;;;;;;;;;4816919;29;20046;-73
2023/12/26 08:18:08;;;;;;;10.52;1.45;;;;;;;;;;4804881;29;20568;-74
2023/12/26 08:20:37;;;;;;;13.27;1.38;;;;;;;;;;4815742;29;20069;-74
2023/12/26 08:23:03;;;;;;;9.52;1.50;;;;;;;;;;4833538;29;20065;-73
2023/12/26 08:25:30;;;;;;;10.80;2.08;;;;;;;;;;4826123;29;20077;-73
2023/12/26 08:27:57;;;;;;;13.48;1.73;;;;;;;;;;4821344;29;20880;-74
2023/12/26 08:30:23;;;;;;;6.30;1.50;;;;;;;;;;4813878;29;20086;-73
2023/12/26 08:32:49;;;;;;;9.02;1.60;;;;;;;;;;4816716;29;20048;-74
2023/12/26 08:35:16;;;;;;;5.95;1.00;;;;;;;;;;4820732;29;20058;-73
2023/12/26 08:37:42;;;;;;;9.43;1.30;;;;;;;;;;4811762;29;20448;-74
2023/12/26 08:40:09;;;;;;;8.43;2.33;;;;;;;;;;4800887;29;20463;-73
2023/12/26 08:42:36;;;;;;;6.32;1.25;;;;;;;;;;4815452;29;20046;-74
2023/12/26 08:45:02;;;;;;;8.55;1.50;;;;;;;;;;4818783;29;20050;-73
2023/12/26 08:47:29;;;;;;;9.88;1.50;;;;;;;;;;4798204;29;20050;-74
2023/12/26 08:49:56;;;;;;;12.27;2.03;;;;;;;;;;4803062;29;20050;-74
2023/12/26 08:52:23;;;;;;;12.17;1.63;;;;;;;;;;4814849;29;20063;-73
2023/12/26 08:54:50;;;;;;;9.65;1.25;;;;;;;;;;4794064;29;20297;-73
2023/12/26 08:57:16;;;;;;;8.38;1.38;;;;;;;;;;4802040;29;20151;-73
2023/12/26 08:59:42;;;;;;;11.45;2.00;;;;;;;;;;4816356;29;20054;-74
2023/12/26 09:02:09;;;;;;;13.30;1.50;;;;;;;;;;4806854;29;20054;-74
2023/12/26 09:04:35;;;;;;;12.30;1.65;;;;;;;;;;4816647;29;20131;-74
2023/12/26 09:07:03;;;;;;;8.07;1.35;;;;;;;;;;4810926;29;20111;-73
2023/12/26 09:09:32;;;;;;;8.70;1.75;;;;;;;;;;4817729;29;20130;-74
2023/12/26 09:11:59;;;;;;;8.93;2.67;;;;;;;;;;4814924;29;20070;-74
2023/12/26 09:14:26;;;;;;;12.70;2.75;;;;;;;;;;4802788;29;20092;-75
2023/12/26 09:16:52;;;;;;;12.25;1.80;;;;;;;;;;4813838;29;20138;-75
2023/12/26 09:19:18;;;;;;;15.38;2.05;;;;;;;;;;4820935;29;20085;-75
2023/12/26 09:21:45;;;;;;;9.52;1.40;;;;;;;;;;4815650;29;20047;-74
2023/12/26 09:24:12;;;;;;;11.57;1.90;;;;;;;;;;4811205;29;20456;-75
2023/12/26 09:26:38;;;;;;;8.05;1.58;;;;;;;;;;4815800;29;20086;-75
2023/12/26 09:29:05;;;;;;;9.95;1.20;;;;;;;;;;4804699;29;20050;-73
2023/12/26 09:31:31;;;;;;;8.50;1.20;;;;;;;;;;4796214;29;20082;-73
2023/12/26 09:33:57;;;;;;;8.90;1.60;;;;;;;;;;4823435;29;20462;-73
2023/12/26 09:36:24;;;;;;;9.15;1.52;;;;;;;;;;4799222;29;20090;-75
2023/12/26 09:38:50;;;;;;;7.88;1.40;;;;;;;;;;4815612;29;20412;-76
2023/12/26 09:41:20;;;;;;;10.50;2.03;;;;;;;;;;4820442;29;20064;-75
2023/12/26 09:43:47;;;;;;;8.50;1.77;;;;;;;;;;4813729;29;20058;-75
2023/12/26 09:46:13;;;;;;;6.93;1.27;;;;;;;;;;4815664;29;20054;-75
2023/12/26 09:48:40;;;;;;;7.80;1.70;;;;;;;;;;4811300;29;20098;-75
2023/12/26 09:51:08;;;;;;;13.82;1.73;;;;;;;;;;4814739;29;20086;-77
2023/12/26 09:53:35;;;;;;;;;;;;;;;;;;4812951;29;20050;-75
2023/12/26 09:56:01;;;;;;;14.38;1.83;;;;;;;;;;4814742;29;20015;-75
2023/12/26 09:58:29;;;;;;;11.40;1.50;;;;;;;;;;4814661;29;20103;-75
2023/12/26 10:00:55;;;;;;;7.22;1.55;;;;;;;;;;4810680;29;20054;-75
2023/12/26 10:03:22;;;;;;;13.05;2.10;;;;;;;;;;4806658;29;20062;-75
2023/12/26 10:05:57;;;;;;;7.97;1.33;;;;;;;;;;4811359;29;20507;-75
2023/12/26 10:08:24;;;;;;;10.88;1.40;;;;;;;;;;4815763;29;20054;-76
2023/12/26 10:10:50;;;;;;;13.05;1.80;;;;;;;;;;4809427;29;20123;-76
2023/12/26 10:13:17;;;;;;;11.35;2.03;;;;;;;;;;4810416;29;20054;-76
2023/12/26 10:15:43;;;;;;;10.88;1.48;;;;;;;;;;4813370;29;20090;-75
2023/12/26 10:18:12;;;;;;;14.80;1.60;;;;;;;;;;4810470;29;20052;-75
2023/12/26 10:20:39;;;;;;;13.05;2.00;;;;;;;;;;4815991;29;20050;-76
2023/12/26 10:23:06;;;;;;;14.70;2.15;;;;;;;;;;4809560;29;20050;-75
2023/12/26 10:25:33;;;;;;;9.68;1.70;;;;;;;;;;4796058;29;20781;-77
2023/12/26 10:28:00;;;;;;;7.65;2.03;;;;;;;;;;4812451;29;20038;-76
2023/12/26 10:30:27;;;;;;;17.15;1.80;;;;;;;;;;4810777;29;20099;-75
2023/12/26 10:33:00;;;;;;;12.73;2.05;;;;;;;;;;4815343;29;20562;-76
2023/12/26 10:35:28;;;;;;;8.18;1.98;;;;;;;;;;4795743;29;20084;-75
2023/12/26 10:37:56;;;;;;;12.10;1.60;;;;;;;;;;4821920;29;20054;-75
2023/12/26 10:40:23;;;;;;;11.95;1.65;;;;;;;;;;4809732;29;20139;-75
2023/12/26 10:42:50;;;;;;;9.05;1.70;;;;;;;;;;4814390;29;20768;-76
2023/12/26 10:45:19;;;;;;;9.77;1.70;;;;;;;;;;4815077;29;20054;-76
2023/12/26 10:47:49;;;;;;;9.20;1.50;;;;;;;;;;4806239;29;20078;-76
2023/12/26 10:50:18;;;;;;;11.80;1.98;;;;;;;;;;4814309;29;20054;-75
2023/12/26 10:52:52;;;;;;;12.63;2.43;;;;;;;;;;4808511;29;20046;-76
2023/12/26 10:55:19;;;;;;;14.38;1.52;;;;;;;;;;4809415;29;20298;-75
2023/12/26 10:57:46;;;;;;;8.98;2.20;;;;;;;;;;4813793;29;20102;-76
2023/12/26 11:00:13;;;;;;;10.65;1.60;;;;;;;;;;4793647;29;20077;-76
2023/12/26 11:02:40;;;;;;;12.45;2.33;;;;;;;;;;4815896;29;20637;-76
2023/12/26 11:05:06;;;;;;;8.45;1.75;;;;;;;;;;4808232;29;21359;-75
2023/12/26 11:07:33;;;;;;;13.80;2.63;;;;;;;;;;4812507;29;20751;-75
2023/12/26 11:09:59;;;;;;;9.85;2.03;;;;;;;;;;4815349;29;20080;-76
2023/12/26 11:12:26;;;;;;;11.02;2.05;;;;;;;;;;4810603;29;20555;-76
2023/12/26 11:14:53;;;;;;;11.90;1.65;;;;;;;;;;4800240;29;20050;-75
2023/12/26 11:17:20;;;;;;;15.13;2.05;;;;;;;;;;4814865;29;20753;-75
2023/12/26 11:19:46;;;;;;;7.18;1.50;;;;;;;;;;4817979;29;20145;-75
2023/12/26 11:22:12;;;;;;;10.45;1.80;;;;;;;;;;4809545;29;20050;-75
2023/12/26 11:24:39;;;;;;;10.55;1.88;;;;;;;;;;4816734;29;20069;-75
2023/12/26 11:27:08;;;;;;;11.55;1.40;;;;;;;;;;4825006;29;20510;-75
2023/12/26 11:29:35;;;;;;;10.18;1.73;;;;;;;;;;4810673;29;20069;-76
2023/12/26 11:32:02;;;;;;;14.23;1.85;;;;;;;;;;4815602;29;20575;-76
2023/12/26 11:34:28;;;;;;;10.43;1.80;;;;;;;;;;4788989;29;20139;-76
2023/12/26 11:36:55;;;;;;;8.65;1.33;;;;;;;;;;4808447;29;20057;-76
2023/12/26 11:39:22;;;;;;;11.77;1.85;;;;;;;;;;4818576;29;20057;-75
2023/12/26 11:41:48;;;;;;;11.13;1.67;;;;;;;;;;4796200;29;20069;-76
2023/12/26 11:44:15;;;;;;;16.35;2.38;;;;;;;;;;4814002;29;20058;-76
2023/12/26 11:46:42;;;;;;;10.73;1.63;;;;;;;;;;4812785;29;20054;-76
2023/12/26 11:49:09;;;;;;;11.63;1.50;;;;;;;;;;4814364;29;20054;-75
2023/12/26 11:51:36;;;;;;;8.82;1.88;;;;;;;;;;4811649;29;20078;-76
2023/12/26 11:54:02;;;;;;;9.45;1.40;;;;;;;;;;4806905;29;20138;-76
2023/12/26 11:56:29;;;;;;;9.38;1.45;;;;;;;;;;4815898;29;20078;-74
2023/12/26 11:58:55;;;;;;;13.18;1.95;;;;;;;;;;4812630;29;20058;-74
2023/12/26 12:01:22;;;;;;;12.50;1.92;;;;;;;;;;4804495;29;20058;-75
2023/12/26 12:03:48;;;;;;;13.07;2.05;;;;;;;;;;4813901;29;20065;-74
2023/12/26 12:06:15;;;;;;;19.35;2.42;;;;;;;;;;4816725;29;20053;-73
2023/12/26 12:09:00;;;;;;;9.15;1.38;;;;;;;;;;4820431;29;20111;-74
2023/12/26 12:11:27;;;;;;;16.38;2.45;;;;;;;;;;4815943;29;20054;-74
2023/12/26 12:13:53;;;;;;;9.18;1.70;;;;;;;;;;4827248;29;20394;-74
2023/12/26 12:16:23;;;;;;;14.77;2.00;;;;;;;;;;4822084;29;20469;-74
2023/12/26 12:19:02;;;;;;;15.75;1.95;;;;;;;;;;4814605;29;20050;-74
2023/12/26 12:21:36;;;;;;;9.43;1.88;;;;;;;;;;4818077;29;20062;-74
2023/12/26 12:24:03;;;;;;;12.48;1.95;;;;;;;;;;4811061;29;20149;-74
2023/12/26 12:26:49;;;;;;;13.85;1.92;;;;;;;;;;4803265;29;20058;-73
2023/12/26 12:29:16;;;;;;;9.90;1.73;;;;;;;;;;4814614;29;20108;-74
2023/12/26 12:31:42;;;;;;;12.98;2.13;;;;;;;;;;4816576;29;20459;-74
2023/12/26 12:34:11;;;;;;;11.10;1.50;;;;;;;;;;4811678;29;20058;-74
2023/12/26 12:36:39;;;;;;;12.50;2.13;;;;;;;;;;4836703;29;20064;-73
2023/12/26 12:39:05;;;;;;;12.75;1.95;;;;;;;;;;4819888;29;20065;-74
2023/12/26 12:41:33;;;;;;;11.07;1.85;;;;;;;;;;4819447;29;20054;-74
2023/12/26 12:44:00;;;;;;;9.48;1.55;;;;;;;;;;4819190;29;20055;-74
2023/12/26 12:46:31;;;;;;;10.52;1.70;;;;;;;;;;4813277;29;20058;-74
2023/12/26 12:48:58;;;;;;;9.18;1.48;;;;;;;;;;4810057;29;20058;-74
2023/12/26 12:51:24;;;;;;;9.05;1.55;;;;;;;;;;4817738;29;20046;-73
2023/12/26 12:53:51;;;;;;;12.63;1.85;;;;;;;;;;4808481;29;20050;-74
2023/12/26 12:56:17;;;;;;;9.40;1.75;;;;;;;;;;4814991;29;20460;-74
2023/12/26 12:58:43;;;;;;;7.80;1.70;;;;;;;;;;4816937;29;20106;-72
2023/12/26 13:01:10;;;;;;;8.27;1.90;;;;;;;;;;4815876;29;20141;-72
2023/12/26 13:03:36;;;;;;;7.18;1.73;;;;;;;;;;4809365;29;20522;-75
2023/12/26 13:06:03;;;;;;;12.77;2.35;;;;;;;;;;4818299;29;20092;-75
2023/12/26 13:08:29;;;;;;;13.23;1.58;;;;;;;;;;4822563;29;20487;-75
2023/12/26 13:10:56;;;;;;;14.95;1.83;;;;;;;;;;4812347;29;20062;-74
2023/12/26 13:13:22;;;;;;;11.73;2.45;;;;;;;;;;4804726;29;20072;-73
2023/12/26 13:15:49;;;;;;;14.80;2.75;;;;;;;;;;4805988;29;20094;-74
2023/12/26 13:18:15;;;;;;;6.57;1.30;;;;;;;;;;4799468;29;20495;-73
2023/12/26 13:20:42;;;;;;;7.72;1.88;;;;;;;;;;4800328;29;20054;-73
2023/12/26 13:23:10;;;;;;;9.20;1.52;;;;;;;;;;4818149;29;20509;-71
2023/12/26 13:25:37;;;;;;;;;;;;;;;;;;4811349;29;20093;-71
2023/12/26 13:28:07;;;;;;;7.55;1.55;;;;;;;;;;4812387;29;19977;-72
2023/12/26 13:30:33;;;;;;;10.88;1.85;;;;;;;;;;4803360;29;20054;-72
2023/12/26 13:33:00;;;;;;;9.55;1.90;;;;;;;;;;4814800;29;20064;-72
2023/12/26 13:35:26;;;;;;;8.48;1.58;;;;;;;;;;4826820;29;20185;-73
2023/12/26 13:37:53;;;;;;;9.43;1.67;;;;;;;;;;4816545;29;20054;-72
2023/12/26 13:40:22;;;;;;;11.45;1.73;;;;;;;;;;4811525;29;20111;-72
2023/12/26 13:42:48;;;;;;;9.77;1.70;;;;;;;;;;4815232;29;20102;-73
2023/12/26 13:45:15;;;;;;;7.18;1.50;;;;;;;;;;4806551;29;20082;-73
2023/12/26 13:47:41;;;;;;;6.72;1.15;;;;;;;;;;4816998;29;20165;-73
2023/12/26 13:50:08;;;;;;;11.52;2.13;;;;;;;;;;4809608;29;20076;-75
2023/12/26 13:52:34;;;;;;;11.73;2.20;;;;;;;;;;4819085;29;20102;-73
2023/12/26 13:55:00;;;;;;;6.55;1.52;;;;;;;;;;4807202;29;20054;-74
2023/12/26 13:57:27;;;;;;;10.93;2.40;;;;;;;;;;4809384;29;20054;-74
2023/12/26 13:59:53;;;;;;;8.60;1.70;;;;;;;;;;4809373;29;20594;-75
2023/12/26 14:02:20;;;;;;;8.23;1.45;;;;;;;;;;4801721;29;20058;-74
2023/12/26 14:04:46;;;;;;;10.02;1.83;;;;;;;;;;4813631;29;20142;-75
2023/12/26 14:07:12;;;;;;;8.80;1.73;;;;;;;;;;4818047;29;20757;-74
2023/12/26 14:09:39;;;;;;;5.72;1.30;;;;;;;;;;4810796;29;20058;-74
2023/12/26 14:12:05;;;;;;;9.13;2.00;;;;;;;;;;4815064;29;20141;-75
2023/12/26 14:14:33;;;;;;;5.20;1.70;;;;;;;;;;4792981;29;20158;-75
2023/12/26 14:16:59;;;;;;;6.80;1.60;;;;;;;;;;4818285;29;20081;-75
2023/12/26 14:19:26;;;;;;;7.70;1.27;;;;;;;;;;4809310;29;20054;-76
2023/12/26 14:21:52;;;;;;;6.82;1.55;;;;;;;;;;4811136;29;20050;-77
2023/12/26 14:24:18;;;;;;;4.60;1.30;;;;;;;;;;4805135;29;20133;-76
2023/12/26 14:26:45;;;;;;;9.60;1.50;;;;;;;;;;4813259;29;20050;-78
2023/12/26 14:29:11;;;;;;;9.82;1.42;;;;;;;;;;4819020;29;20073;-76
2023/12/26 14:31:38;;;;;;;9.35;1.73;;;;;;;;;;4820876;29;20091;-77
2023/12/26 14:34:04;;;;;;;7.30;1.27;;;;;;;;;;4817530;29;20061;-76
2023/12/26 14:36:31;;;;;;;10.48;1.80;;;;;;;;;;4819431;29;20086;-76
2023/12/26 14:38:58;;;;;;;10.27;2.10;;;;;;;;;;4815942;29;20123;-78